Time;durP1;ratioP1;P1;durP2;ratioP2;P2;SDS_P1;SDS_P2;PMS_P1;PMS_P2;Temp;Humidity;BMP_temperature;BMP_pressure;BME280_temperature;BME280_humidity;BME280_pressure;Samples;Min_cycle;Max_cycle;Signal;HPM_P1;HPM_P2
2023/04/09 00:00:23;;;;;;;2.38;0.50;;;18.40;73.30;;;;;;5062930;28;20453;-62
2023/04/09 00:02:50;;;;;;;2.60;0.30;;;18.40;73.60;;;;;;5054746;28;20029;-61
2023/04/09 00:05:18;;;;;;;2.50;0.43;;;18.40;73.50;;;;;;5053460;28;20123;-62
2023/04/09 00:07:45;;;;;;;1.65;0.40;;;18.50;73.40;;;;;;5051169;28;20115;-61
2023/04/09 00:10:13;;;;;;;1.42;0.60;;;18.60;70.90;;;;;;5052241;28;20036;-61
2023/04/09 00:12:40;;;;;;;3.75;0.68;;;18.50;72.50;;;;;;5053685;28;20033;-60
2023/04/09 00:15:08;;;;;;;1.88;0.43;;;18.60;72.30;;;;;;5060698;28;20024;-61
2023/04/09 00:17:35;;;;;;;1.83;0.50;;;18.70;71.10;;;;;;5060112;28;20025;-61
2023/04/09 00:20:03;;;;;;;1.48;0.40;;;18.80;71.70;;;;;;5053485;28;20040;-61
2023/04/09 00:22:31;;;;;;;2.78;0.60;;;19.00;72.60;;;;;;5054233;28;20021;-60
2023/04/09 00:24:58;;;;;;;2.53;0.57;;;19.10;71.50;;;;;;5054736;28;20028;-60
2023/04/09 00:27:26;;;;;;;4.18;1.10;;;19.00;71.60;;;;;;5054055;28;20025;-61
2023/04/09 00:29:56;;;;;;;2.60;0.68;;;19.00;71.40;;;;;;5062250;28;20058;-63
2023/04/09 00:32:23;;;;;;;1.13;0.50;;;19.00;71.00;;;;;;5055274;28;20397;-65
2023/04/09 00:34:51;;;;;;;4.60;0.55;;;19.00;71.10;;;;;;5063221;28;20027;-60
2023/04/09 00:37:18;;;;;;;1.45;0.43;;;19.20;70.60;;;;;;5060533;28;20274;-61
2023/04/09 00:39:46;;;;;;;2.08;0.65;;;19.20;68.90;;;;;;5054894;28;20032;-61
2023/04/09 00:42:13;;;;;;;2.53;0.60;;;19.20;70.10;;;;;;5051352;28;20029;-62
2023/04/09 00:44:41;;;;;;;1.63;0.40;;;19.30;70.80;;;;;;5051794;28;20030;-62
2023/04/09 00:47:08;;;;;;;1.17;0.30;;;19.50;69.40;;;;;;5058751;28;20030;-62
2023/04/09 00:49:36;;;;;;;2.28;0.47;;;19.50;67.20;;;;;;5064898;28;20021;-62
2023/04/09 00:52:03;;;;;;;2.80;0.57;;;19.50;67.60;;;;;;5055816;28;20037;-62
2023/04/09 00:54:31;;;;;;;1.73;0.47;;;19.50;66.80;;;;;;5055124;28;20032;-62
2023/04/09 00:56:59;;;;;;;1.23;0.63;;;19.80;68.80;;;;;;5052864;28;20134;-62
2023/04/09 00:59:28;;;;;;;2.13;0.40;;;20.00;69.00;;;;;;5057666;28;20075;-60
2023/04/09 01:01:55;;;;;;;5.07;0.75;;;20.10;68.30;;;;;;5059766;28;20355;-61
2023/04/09 01:04:23;;;;;;;2.45;0.70;;;20.00;65.20;;;;;;5064375;28;20033;-59
2023/04/09 01:07:35;;;;;;;4.85;0.90;;;19.90;67.30;;;;;;5056448;28;20555;-59
2023/04/09 01:10:50;;;;;;;2.17;0.63;;;20.00;67.50;;;;;;5070262;28;20029;-59
2023/04/09 01:13:29;;;;;;;2.75;0.75;;;20.20;63.80;;;;;;5050912;28;20056;-59
2023/04/09 01:16:00;;;;;;;1.83;0.50;;;20.00;62.50;;;;;;5055400;28;20084;-59
2023/04/09 01:18:51;;;;;;;4.40;0.60;;;20.00;62.30;;;;;;5049275;28;20053;-59
2023/04/09 01:21:22;;;;;;;1.30;0.40;;;20.00;63.40;;;;;;5066918;28;20066;-58
2023/04/09 01:24:08;;;;;;;3.72;0.80;;;20.10;63.20;;;;;;5055635;28;20043;-59
2023/04/09 01:26:56;;;;;;;1.98;0.60;;;20.30;63.80;;;;;;5063961;28;20028;-59
2023/04/09 01:29:24;;;;;;;2.67;0.80;;;20.40;61.50;;;;;;5054714;28;20021;-65
2023/04/09 01:31:53;;;;;;;2.85;0.60;;;20.50;64.40;;;;;;5055836;28;20025;-59
2023/04/09 01:34:21;;;;;;;2.80;0.40;;;20.50;60.20;;;;;;5050983;28;20033;-59
2023/04/09 01:36:57;;;;;;;1.20;0.40;;;20.40;60.10;;;;;;5056365;28;20027;-60
2023/04/09 01:39:25;;;;;;;0.85;0.45;;;20.30;61.40;;;;;;5054806;28;20055;-60
2023/04/09 01:41:53;;;;;;;1.17;0.30;;;20.30;64.40;;;;;;5059675;28;20720;-59
2023/04/09 01:44:21;;;;;;;1.10;0.40;;;20.50;63.80;;;;;;5061975;28;20469;-59
2023/04/09 01:46:49;;;;;;;2.90;0.70;;;20.60;59.90;;;;;;5050600;28;20474;-59
2023/04/09 01:49:18;;;;;;;3.50;0.70;;;20.90;61.80;;;;;;5059434;28;20028;-59
2023/04/09 01:51:46;;;;;;;2.40;0.40;;;21.10;62.60;;;;;;5049635;28;20033;-60
2023/04/09 01:54:15;;;;;;;4.05;0.50;;;21.10;61.60;;;;;;5056408;28;20029;-60
2023/04/09 01:56:43;;;;;;;3.53;0.60;;;21.20;60.70;;;;;;5056549;28;20029;-59
2023/04/09 01:59:11;;;;;;;1.90;0.60;;;21.30;61.20;;;;;;5050745;28;20032;-60
2023/04/09 02:01:52;;;;;;;2.55;0.55;;;21.40;62.10;;;;;;5057386;28;20103;-59
2023/04/09 02:04:24;;;;;;;2.22;0.63;;;21.40;58.00;;;;;;5052717;28;20230;-60
2023/04/09 02:07:04;;;;;;;2.42;0.50;;;21.50;59.30;;;;;;5060458;28;20045;-60
2023/04/09 02:09:35;;;;;;;2.30;0.40;;;21.80;58.80;;;;;;5053933;28;20040;-61
2023/04/09 02:12:05;;;;;;;3.53;0.95;;;21.90;60.20;;;;;;5064232;28;20047;-60
2023/04/09 02:14:35;;;;;;;3.63;0.70;;;22.00;61.00;;;;;;5075195;28;20064;-58
2023/04/09 02:17:02;;;;;;;3.83;1.52;;;22.20;63.00;;;;;;5057125;28;20039;-60
2023/04/09 02:19:47;;;;;;;2.33;0.40;;;22.30;63.20;;;;;;5066473;28;20498;-60
2023/04/09 02:22:16;;;;;;;2.80;0.28;;;22.40;57.30;;;;;;5067023;28;20294;-60
2023/04/09 02:24:43;;;;;;;1.92;0.30;;;22.30;59.50;;;;;;5071157;28;20771;-60
2023/04/09 02:27:11;;;;;;;2.17;0.50;;;22.10;57.70;;;;;;5065527;28;20043;-60
2023/04/09 02:29:40;;;;;;;2.10;0.50;;;21.90;58.30;;;;;;5066674;28;20418;-60
2023/04/09 02:32:07;;;;;;;2.20;0.60;;;21.90;59.20;;;;;;5067675;28;20561;-59
2023/04/09 02:34:35;;;;;;;1.38;0.50;;;21.90;60.00;;;;;;5064251;28;20401;-63
2023/04/09 02:37:02;;;;;;;3.63;0.50;;;22.00;59.00;;;;;;5069917;28;20107;-60
2023/04/09 02:39:29;;;;;;;2.40;0.63;;;22.10;59.00;;;;;;5064545;28;20035;-59
2023/04/09 02:41:57;;;;;;;1.30;0.52;;;22.00;56.10;;;;;;5062635;28;20092;-60
2023/04/09 02:44:24;;;;;;;2.03;0.40;;;22.00;59.60;;;;;;5066823;28;20042;-60
2023/04/09 02:46:52;;;;;;;2.75;0.60;;;22.10;58.40;;;;;;5069760;28;20112;-60
2023/04/09 02:49:19;;;;;;;7.07;0.63;;;22.30;58.00;;;;;;5062662;28;20013;-60
2023/04/09 02:51:46;;;;;;;0.95;0.30;;;22.40;57.50;;;;;;5067467;28;20094;-60
2023/04/09 02:54:14;;;;;;;2.17;0.30;;;22.40;55.20;;;;;;5085548;28;20141;-59
2023/04/09 02:56:41;;;;;;;1.20;0.35;;;22.30;56.10;;;;;;5082193;28;20024;-60
2023/04/09 02:59:09;;;;;;;2.20;0.40;;;22.20;57.50;;;;;;5051158;28;20029;-60
2023/04/09 03:01:36;;;;;;;2.35;0.45;;;22.20;57.80;;;;;;5048357;28;20074;-58
2023/04/09 03:04:03;;;;;;;1.83;0.60;;;22.40;59.00;;;;;;5050694;28;20033;-60
2023/04/09 03:06:31;;;;;;;1.17;0.32;;;22.40;56.10;;;;;;5049449;28;20049;-60
2023/04/09 03:08:58;;;;;;;2.13;0.75;;;22.20;56.90;;;;;;5073859;28;20073;-60
2023/04/09 03:11:26;;;;;;;3.30;0.50;;;22.20;58.40;;;;;;5074624;28;20020;-60
2023/04/09 03:13:53;;;;;;;0.80;0.28;;;22.20;58.30;;;;;;5065323;28;20037;-63
2023/04/09 03:16:21;;;;;;;1.73;0.30;;;22.20;56.80;;;;;;5084293;28;20111;-60
2023/04/09 03:18:48;;;;;;;0.98;0.30;;;22.10;56.20;;;;;;5067907;28;20086;-60
2023/04/09 03:21:15;;;;;;;1.33;0.20;;;22.00;56.20;;;;;;5067845;28;20477;-61
2023/04/09 03:23:43;;;;;;;3.00;0.40;;;21.90;55.60;;;;;;5068928;28;20059;-60
2023/04/09 03:26:10;;;;;;;0.93;0.30;;;21.80;55.50;;;;;;5068924;28;20421;-60
2023/04/09 03:28:37;;;;;;;1.30;0.30;;;21.90;55.20;;;;;;5069020;28;20032;-60
2023/04/09 03:31:05;;;;;;;3.13;0.40;;;21.90;54.80;;;;;;5066510;28;20397;-60
2023/04/09 03:33:32;;;;;;;2.30;0.45;;;21.90;52.60;;;;;;5061016;28;20048;-61
2023/04/09 03:36:00;;;;;;;0.80;0.30;;;21.90;54.50;;;;;;5052506;28;20649;-61
2023/04/09 03:38:27;;;;;;;0.77;0.30;;;21.80;55.00;;;;;;5059779;28;20036;-61
2023/04/09 03:40:55;;;;;;;1.77;0.38;;;21.80;55.90;;;;;;5070999;28;20474;-61
2023/04/09 03:43:22;;;;;;;3.22;0.50;;;21.70;55.70;;;;;;5072865;28;20508;-61
2023/04/09 03:45:50;;;;;;;1.55;0.68;;;21.60;56.20;;;;;;5063984;28;20033;-60
2023/04/09 03:48:17;;;;;;;3.53;0.40;;;21.70;55.30;;;;;;5052214;28;20067;-61
2023/04/09 03:50:45;;;;;;;1.38;0.30;;;21.50;55.60;;;;;;5051070;28;20025;-61
2023/04/09 03:53:12;;;;;;;1.60;0.50;;;21.20;55.10;;;;;;5066175;28;20024;-60
2023/04/09 03:55:40;;;;;;;1.88;0.30;;;21.10;57.30;;;;;;5072014;28;20036;-61
2023/04/09 03:58:07;;;;;;;1.13;0.50;;;21.00;57.80;;;;;;5072003;28;20035;-61
2023/04/09 04:00:35;;;;;;;0.90;0.50;;;21.20;56.80;;;;;;5070907;28;20032;-61
2023/04/09 04:03:02;;;;;;;0.77;0.43;;;21.00;55.70;;;;;;5059384;28;20025;-60
2023/04/09 04:05:30;;;;;;;1.55;0.38;;;21.00;56.10;;;;;;5050460;28;20053;-60
2023/04/09 04:07:57;;;;;;;2.63;0.50;;;21.00;55.20;;;;;;5051847;28;20017;-60
2023/04/09 04:10:25;;;;;;;1.15;0.38;;;21.00;55.20;;;;;;5052077;28;20421;-61
2023/04/09 04:12:52;;;;;;;2.40;0.65;;;21.00;53.80;;;;;;5052283;28;20033;-60
2023/04/09 04:15:19;;;;;;;6.03;0.85;;;21.00;54.90;;;;;;5063835;28;20029;-61
2023/04/09 04:17:47;;;;;;;1.35;0.30;;;21.00;54.60;;;;;;5070669;28;20111;-61
2023/04/09 04:20:14;;;;;;;1.73;0.50;;;21.10;54.00;;;;;;5071814;28;20525;-61
2023/04/09 04:22:42;;;;;;;1.00;0.20;;;21.10;54.40;;;;;;5071566;28;20107;-60
2023/04/09 04:25:10;;;;;;;3.63;0.35;;;21.10;54.50;;;;;;5071679;28;20524;-61
2023/04/09 04:27:40;;;;;;;2.25;0.65;;;20.80;55.00;;;;;;5056692;28;20083;-60
2023/04/09 04:30:08;;;;;;;2.60;0.47;;;20.90;55.80;;;;;;5051669;28;20029;-61
2023/04/09 04:32:35;;;;;;;2.05;0.35;;;20.90;55.60;;;;;;5050102;28;20029;-60
2023/04/09 04:35:03;;;;;;;2.92;0.52;;;20.80;55.70;;;;;;5051409;28;20032;-61
2023/04/09 04:37:30;;;;;;;2.08;0.73;;;20.80;56.10;;;;;;5051277;28;20086;-60
2023/04/09 04:40:00;;;;;;;1.52;0.60;;;20.80;56.00;;;;;;5049975;28;20452;-60
2023/04/09 04:42:27;;;;;;;1.73;0.75;;;20.70;54.90;;;;;;5051419;28;20108;-61
2023/04/09 04:44:55;;;;;;;3.40;0.45;;;20.60;55.80;;;;;;5051231;28;20112;-60
2023/04/09 04:47:22;;;;;;;0.47;0.30;;;20.60;55.60;;;;;;5051616;28;20031;-61
2023/04/09 04:49:50;;;;;;;1.05;0.35;;;20.60;55.30;;;;;;5053574;28;20040;-61
2023/04/09 04:52:17;;;;;;;2.92;0.68;;;20.60;56.50;;;;;;5069523;28;20111;-61
2023/04/09 04:54:45;;;;;;;1.75;0.40;;;20.60;55.90;;;;;;5070045;28;20025;-61
2023/04/09 04:57:12;;;;;;;5.95;0.60;;;20.50;56.40;;;;;;5070872;28;20052;-61
2023/04/09 04:59:40;;;;;;;2.97;0.60;;;20.40;55.70;;;;;;5070524;28;20026;-61
2023/04/09 05:02:08;;;;;;;2.67;0.40;;;20.30;55.10;;;;;;5063500;28;20025;-60
2023/04/09 05:04:35;;;;;;;1.13;0.30;;;20.30;57.40;;;;;;5050913;28;20428;-61
2023/04/09 05:07:03;;;;;;;2.30;0.28;;;20.30;55.90;;;;;;5050519;28;20052;-60
2023/04/09 05:09:30;;;;;;;1.27;0.52;;;20.20;55.70;;;;;;5052243;28;20798;-60
2023/04/09 05:11:58;;;;;;;1.05;0.30;;;20.10;56.80;;;;;;5070808;28;20110;-61
2023/04/09 05:14:25;;;;;;;1.50;0.30;;;20.10;56.90;;;;;;5060768;28;20039;-60
2023/04/09 05:16:53;;;;;;;2.03;0.60;;;20.10;56.20;;;;;;5051108;28;20021;-59
2023/04/09 05:19:20;;;;;;;1.70;0.40;;;20.00;56.00;;;;;;5050717;28;20028;-60
2023/04/09 05:21:47;;;;;;;3.72;0.55;;;19.90;56.00;;;;;;5050487;28;20021;-60
2023/04/09 05:24:15;;;;;;;2.17;0.57;;;19.80;56.00;;;;;;5050571;28;20266;-61
2023/04/09 05:26:42;;;;;;;3.03;0.55;;;19.80;55.30;;;;;;5062324;28;20107;-60
2023/04/09 05:29:10;;;;;;;1.70;0.50;;;19.90;55.70;;;;;;5070178;28;20125;-60
2023/04/09 05:31:39;;;;;;;1.73;0.50;;;19.80;56.00;;;;;;5070295;28;20060;-60
2023/04/09 05:34:06;;;;;;;2.22;0.40;;;19.80;56.00;;;;;;5070261;28;20051;-61
2023/04/09 05:36:33;;;;;;;2.63;0.60;;;19.70;55.70;;;;;;5070065;28;20024;-61
2023/04/09 05:39:01;;;;;;;3.80;0.50;;;19.60;55.80;;;;;;5065022;28;20036;-60
2023/04/09 05:41:28;;;;;;;2.72;0.40;;;19.70;55.60;;;;;;5053665;28;20028;-60
2023/04/09 05:43:56;;;;;;;0.73;0.30;;;19.60;56.00;;;;;;5062677;28;20392;-60
2023/04/09 05:46:23;;;;;;;2.00;0.63;;;19.60;56.70;;;;;;5069621;28;20023;-58
2023/04/09 05:48:51;;;;;;;1.40;0.40;;;19.50;56.60;;;;;;5084286;28;20551;-58
2023/04/09 05:51:18;;;;;;;1.85;0.63;;;19.50;56.40;;;;;;5069279;28;20061;-58
2023/04/09 05:53:45;;;;;;;2.60;0.60;;;19.50;56.70;;;;;;5074953;28;20040;-57
2023/04/09 05:56:16;;;;;;;1.15;0.50;;;19.50;56.60;;;;;;5071176;28;20377;-59
2023/04/09 05:58:43;;;;;;;2.00;0.65;;;19.40;56.70;;;;;;5050108;28;20037;-59
2023/04/09 06:01:11;;;;;;;1.20;0.57;;;19.40;57.50;;;;;;5085114;28;20020;-59
2023/04/09 06:03:38;;;;;;;1.05;0.40;;;19.40;58.60;;;;;;5074672;28;20442;-59
2023/04/09 06:06:06;;;;;;;2.55;0.50;;;19.50;57.70;;;;;;5079463;28;20048;-60
2023/04/09 06:08:33;;;;;;;5.57;0.43;;;19.50;57.90;;;;;;5081558;28;20081;-57
2023/04/09 06:11:01;;;;;;;2.88;0.50;;;19.40;56.90;;;;;;5076868;28;20081;-59
2023/04/09 06:13:28;;;;;;;2.03;0.63;;;19.30;57.90;;;;;;5089338;28;20040;-59
2023/04/09 06:15:56;;;;;;;2.10;0.43;;;19.30;58.40;;;;;;5081905;28;20020;-59
2023/04/09 06:18:23;;;;;;;2.65;0.65;;;19.20;57.90;;;;;;5079600;28;20118;-60
2023/04/09 06:21:00;;;;;;;1.33;0.38;;;19.10;58.70;;;;;;5063543;28;20061;-60
2023/04/09 06:23:27;;;;;;;2.97;0.90;;;19.10;58.10;;;;;;5058263;28;20035;-61
2023/04/09 06:25:55;;;;;;;2.70;0.73;;;19.10;59.30;;;;;;5081452;28;20027;-61
2023/04/09 06:28:22;;;;;;;1.80;0.43;;;19.00;58.70;;;;;;5080007;28;20119;-61
2023/04/09 06:30:49;;;;;;;2.45;0.40;;;18.90;59.50;;;;;;5074043;28;20048;-61
2023/04/09 06:33:17;;;;;;;2.03;0.90;;;18.80;59.70;;;;;;5083867;28;20455;-61
2023/04/09 06:35:44;;;;;;;2.88;0.57;;;18.70;59.70;;;;;;5074536;28;20107;-61
2023/04/09 06:38:12;;;;;;;2.13;0.50;;;18.50;59.90;;;;;;5072519;28;20422;-61
2023/04/09 06:40:40;;;;;;;1.63;0.60;;;18.30;61.20;;;;;;5081247;28;20538;-61
2023/04/09 06:43:08;;;;;;;1.48;0.47;;;18.20;60.40;;;;;;5069898;28;20066;-61
2023/04/09 06:45:36;;;;;;;1.67;0.47;;;18.10;60.90;;;;;;5072743;28;20031;-61
2023/04/09 06:48:04;;;;;;;2.38;0.55;;;18.10;61.60;;;;;;5068794;28;20024;-62
2023/04/09 06:50:31;;;;;;;2.75;0.45;;;18.00;61.50;;;;;;5076038;28;20052;-61
2023/04/09 06:52:59;;;;;;;2.78;0.63;;;18.00;62.00;;;;;;5085441;28;20028;-61
2023/04/09 06:55:26;;;;;;;1.98;0.47;;;18.00;62.70;;;;;;5055976;28;20051;-61
2023/04/09 06:57:54;;;;;;;1.90;0.73;;;18.00;61.50;;;;;;5081189;28;20028;-60
2023/04/09 07:00:22;;;;;;;2.25;0.55;;;18.00;62.00;;;;;;5077803;28;20075;-61
2023/04/09 07:02:49;;;;;;;1.83;0.55;;;17.90;61.40;;;;;;5083572;28;20545;-61
2023/04/09 07:05:17;;;;;;;1.63;0.95;;;17.90;62.60;;;;;;5067497;28;20079;-61
2023/04/09 07:07:45;;;;;;;3.50;0.43;;;17.90;62.50;;;;;;5083498;28;20091;-61
2023/04/09 07:10:12;;;;;;;3.78;0.80;;;17.80;63.20;;;;;;5081893;28;20383;-61
2023/04/09 07:12:40;;;;;;;2.03;1.02;;;17.70;63.70;;;;;;5078950;28;20059;-61
2023/04/09 07:15:08;;;;;;;2.95;0.90;;;17.70;64.00;;;;;;5088981;28;20027;-62
2023/04/09 07:17:35;;;;;;;2.45;0.30;;;17.60;64.60;;;;;;5076211;28;20032;-61
2023/04/09 07:20:03;;;;;;;4.15;1.95;;;17.50;64.60;;;;;;5083486;28;20035;-61
2023/04/09 07:22:30;;;;;;;2.40;0.82;;;17.30;65.00;;;;;;5077733;28;20024;-63
2023/04/09 07:24:58;;;;;;;1.08;0.40;;;17.20;66.50;;;;;;5068206;28;20568;-60
2023/04/09 07:27:28;;;;;;;5.97;2.83;;;17.20;65.80;;;;;;5058281;28;20022;-66
2023/04/09 07:29:57;;;;;;;4.07;1.90;;;17.10;65.70;;;;;;5084483;28;20024;-61
2023/04/09 07:32:26;;;;;;;38.22;15.43;;;17.00;66.20;;;;;;5078454;28;20032;-61
2023/04/09 07:34:58;;;;;;;26.90;11.40;;;17.00;67.20;;;;;;5088858;28;20472;-61
2023/04/09 07:37:26;;;;;;;14.15;4.45;;;16.80;67.70;;;;;;5059049;28;20024;-64
2023/04/09 07:39:53;;;;;;;6.93;1.70;;;16.70;68.20;;;;;;5083926;28;20024;-61
2023/04/09 07:42:21;;;;;;;3.30;1.08;;;16.60;69.30;;;;;;5082287;28;20027;-61
2023/04/09 07:44:48;;;;;;;5.20;2.50;;;16.50;69.90;;;;;;5074590;28;20032;-61
2023/04/09 07:47:15;;;;;;;4.75;1.60;;;16.30;70.60;;;;;;5088648;28;20110;-61
2023/04/09 07:49:43;;;;;;;3.25;1.13;;;16.20;71.80;;;;;;5077592;28;20407;-61
2023/04/09 07:52:10;;;;;;;2.53;1.05;;;16.00;73.60;;;;;;5081571;28;20511;-62
2023/04/09 07:54:38;;;;;;;5.57;0.80;;;16.10;72.50;;;;;;5085606;28;20105;-61
2023/04/09 07:57:05;;;;;;;4.13;0.77;;;16.00;73.30;;;;;;5061073;28;20108;-61
2023/04/09 07:59:35;;;;;;;4.63;0.60;;;15.90;73.70;;;;;;5085027;28;20106;-61
2023/04/09 08:02:02;;;;;;;1.65;0.85;;;16.00;73.80;;;;;;5056424;28;20024;-62
2023/04/09 08:04:30;;;;;;;3.00;0.68;;;15.90;73.80;;;;;;5067399;28;20035;-61
2023/04/09 08:06:58;;;;;;;1.38;0.80;;;15.80;74.60;;;;;;5056210;28;20803;-60
2023/04/09 08:09:25;;;;;;;3.50;0.60;;;15.70;75.60;;;;;;5073438;28;20028;-61
2023/04/09 08:11:53;;;;;;;1.80;0.68;;;15.70;75.50;;;;;;5066138;28;20028;-64
2023/04/09 08:14:20;;;;;;;1.98;0.60;;;15.60;76.10;;;;;;5076976;28;20036;-61
2023/04/09 08:16:49;;;;;;;2.38;0.90;;;15.50;76.70;;;;;;5071655;28;20039;-61
2023/04/09 08:19:18;;;;;;;1.65;0.55;;;15.50;77.00;;;;;;5064426;28;20031;-63
2023/04/09 08:21:48;;;;;;;2.72;0.40;;;15.50;78.00;;;;;;5054089;28;20106;-63
2023/04/09 08:24:16;;;;;;;2.30;0.75;;;15.40;78.10;;;;;;5072742;28;20115;-63
2023/04/09 08:26:44;;;;;;;1.98;0.50;;;15.40;78.80;;;;;;5071903;28;20058;-63
2023/04/09 08:29:12;;;;;;;1.33;0.50;;;15.30;79.60;;;;;;5072417;28;20044;-64
2023/04/09 08:31:40;;;;;;;5.03;0.70;;;15.30;79.80;;;;;;5078697;28;20028;-63
2023/04/09 08:34:08;;;;;;;1.75;0.45;;;15.20;80.80;;;;;;5061383;28;20397;-63
2023/04/09 08:36:35;;;;;;;3.38;0.50;;;15.20;81.00;;;;;;5067923;28;20608;-63
2023/04/09 08:39:03;;;;;;;3.47;0.90;;;15.20;82.00;;;;;;5057130;28;20430;-65
2023/04/09 08:41:31;;;;;;;2.13;0.50;;;15.00;83.90;;;;;;5065233;28;20389;-63
2023/04/09 08:43:59;;;;;;;2.25;0.73;;;14.90;85.10;;;;;;5063053;28;20120;-63
2023/04/09 08:46:28;;;;;;;1.48;0.57;;;14.80;87.00;;;;;;5068025;28;20033;-64
2023/04/09 08:48:55;;;;;;;5.35;1.17;;;14.60;88.70;;;;;;5064961;28;20021;-67
2023/04/09 08:51:24;;;;;;;4.50;1.20;;;14.50;90.80;;;;;;5060218;28;20116;-64
2023/04/09 08:54:00;;;;;;;3.90;1.30;;;14.50;91.20;;;;;;5074722;28;20826;-63
2023/04/09 08:56:28;;;;;;;4.53;1.38;;;14.40;91.80;;;;;;5070060;28;20460;-64
2023/04/09 08:58:56;;;;;;;2.47;1.05;;;14.30;92.40;;;;;;5064266;28;20531;-64
2023/04/09 09:01:26;;;;;;;5.00;1.42;;;14.30;92.40;;;;;;5069828;28;20020;-64
2023/04/09 09:03:57;;;;;;;6.28;1.83;;;14.30;93.20;;;;;;5074362;28;20029;-64
2023/04/09 09:06:27;;;;;;;6.13;1.52;;;14.20;94.20;;;;;;5070194;28;20072;-65
2023/04/09 09:09:09;;;;;;;6.85;2.05;;;14.10;94.00;;;;;;5054365;28;20036;-65
2023/04/09 09:11:38;;;;;;;5.72;1.73;;;14.10;95.20;;;;;;5050512;28;20493;-63
2023/04/09 09:14:11;;;;;;;5.50;1.40;;;14.00;95.00;;;;;;5064568;28;20447;-64
2023/04/09 09:16:44;;;;;;;4.38;1.38;;;13.90;96.10;;;;;;5062068;28;20024;-64
2023/04/09 09:19:32;;;;;;;5.55;1.35;;;13.90;96.40;;;;;;5070367;28;20028;-63
2023/04/09 09:22:05;;;;;;;3.95;1.00;;;13.80;96.90;;;;;;5066031;28;20435;-65
2023/04/09 09:24:33;;;;;;;4.40;1.00;;;13.70;97.30;;;;;;5052575;28;20025;-65
2023/04/09 09:27:03;;;;;;;4.00;1.25;;;13.60;97.70;;;;;;5065606;28;20024;-65
2023/04/09 09:29:30;;;;;;;2.42;0.60;;;13.70;98.00;;;;;;5052419;28;20036;-64
2023/04/09 09:31:58;;;;;;;7.32;1.00;;;13.60;98.20;;;;;;5063423;28;20033;-65
2023/04/09 09:34:25;;;;;;;4.20;1.55;;;13.70;98.10;;;;;;5067172;28;20173;-65
2023/04/09 09:36:53;;;;;;;5.63;1.35;;;13.70;97.70;;;;;;5074779;28;20758;-61
2023/04/09 09:39:21;;;;;;;1.92;0.90;;;13.60;98.70;;;;;;5071312;28;20069;-64
2023/04/09 09:42:05;;;;;;;3.28;0.80;;;13.50;98.70;;;;;;5064113;28;20564;-64
2023/04/09 09:44:33;;;;;;;5.88;0.93;;;13.40;99.00;;;;;;5069719;28;20050;-64
2023/04/09 09:47:03;;;;;;;2.78;0.80;;;13.20;99.30;;;;;;5054505;28;20028;-64
2023/04/09 09:49:31;;;;;;;1.60;0.60;;;13.20;99.90;;;;;;5065734;28;20039;-63
2023/04/09 09:52:01;;;;;;;2.25;0.95;;;13.10;99.90;;;;;;5070764;28;20090;-65
2023/04/09 09:54:38;;;;;;;3.65;1.08;;;12.90;99.90;;;;;;5063154;28;20033;-64
2023/04/09 09:57:09;;;;;;;2.10;0.47;;;12.90;99.90;;;;;;5064873;28;20085;-64
2023/04/09 09:59:53;;;;;;;3.13;0.63;;;12.80;99.90;;;;;;5062433;28;20023;-64
2023/04/09 10:02:23;;;;;;;2.35;0.68;;;12.80;99.90;;;;;;5062804;28;20035;-66
2023/04/09 10:04:53;;;;;;;2.08;0.75;;;12.70;99.90;;;;;;5061854;28;20036;-65
2023/04/09 10:07:21;;;;;;;5.50;0.82;;;12.60;99.90;;;;;;5059039;28;20051;-65
2023/04/09 10:09:53;;;;;;;3.13;0.50;;;12.40;99.90;;;;;;5069116;28;20073;-65
2023/04/09 10:12:22;;;;;;;3.00;0.95;;;12.40;99.90;;;;;;5070337;28;20032;-65
2023/04/09 10:14:54;;;;;;;2.80;0.70;;;12.20;99.90;;;;;;5062358;28;20103;-63
2023/04/09 10:17:22;;;;;;;1.52;0.55;;;12.00;99.90;;;;;;5073988;28;20020;-64
2023/04/09 10:20:15;;;;;;;4.60;1.02;;;11.90;99.90;;;;;;5059962;28;20427;-64
2023/04/09 10:22:47;;;;;;;2.22;1.15;;;11.80;99.90;;;;;;5072672;28;20040;-64
2023/04/09 10:25:15;;;;;;;3.22;0.80;;;11.60;99.90;;;;;;5062803;28;20423;-65
2023/04/09 10:27:48;;;;;;;4.53;0.85;;;11.60;99.90;;;;;;5062853;28;20477;-64
2023/04/09 10:30:35;;;;;;;5.55;0.95;;;11.40;99.90;;;;;;5061721;28;20020;-64
2023/04/09 10:33:14;;;;;;;3.33;1.00;;;11.40;99.90;;;;;;5065573;28;20409;-65
2023/04/09 10:35:45;;;;;;;8.05;1.30;;;11.30;99.90;;;;;;5075823;28;20707;-64
2023/04/09 10:38:14;;;;;;;3.33;0.98;;;11.20;99.90;;;;;;5057307;28;20067;-64
2023/04/09 10:40:50;;;;;;;6.40;0.85;;;11.20;99.90;;;;;;5069226;28;20025;-64
2023/04/09 10:43:22;;;;;;;2.90;0.80;;;11.20;99.90;;;;;;5073889;28;20501;-64
2023/04/09 10:45:52;;;;;;;4.88;0.82;;;11.10;99.90;;;;;;5084672;28;20027;-64
2023/04/09 10:48:25;;;;;;;3.83;1.02;;;11.00;99.90;;;;;;5077161;28;20029;-64
2023/04/09 10:50:52;;;;;;;2.47;0.75;;;10.90;99.90;;;;;;5067884;28;20032;-64
2023/04/09 10:53:25;;;;;;;4.53;1.30;;;10.90;99.90;;;;;;5070366;28;20028;-63
2023/04/09 10:55:55;;;;;;;3.50;1.60;;;10.90;99.90;;;;;;5065453;28;20349;-64
2023/04/09 10:58:23;;;;;;;4.65;1.05;;;10.80;99.90;;;;;;5075474;28;20024;-64
2023/04/09 11:00:51;;;;;;;3.42;1.10;;;10.80;99.90;;;;;;5074635;28;20086;-64
2023/04/09 11:03:27;;;;;;;3.10;0.63;;;10.70;99.90;;;;;;5060547;28;20029;-64
2023/04/09 11:06:07;;;;;;;6.45;1.17;;;10.60;99.90;;;;;;5067613;28;20044;-66
2023/04/09 11:08:37;;;;;;;2.45;0.80;;;10.60;99.90;;;;;;5082982;28;20063;-63
2023/04/09 11:11:05;;;;;;;5.07;1.17;;;10.70;99.90;;;;;;5068007;28;20060;-64
2023/04/09 11:13:33;;;;;;;3.95;0.90;;;10.80;99.90;;;;;;5065324;28;20044;-64
2023/04/09 11:16:02;;;;;;;3.40;1.17;;;10.80;99.90;;;;;;5066307;28;20759;-65
2023/04/09 11:18:33;;;;;;;7.18;1.42;;;10.80;99.90;;;;;;5075096;28;20020;-65
2023/04/09 11:21:05;;;;;;;7.32;1.10;;;11.00;99.90;;;;;;5066477;28;20043;-62
2023/04/09 11:23:33;;;;;;;5.82;0.93;;;11.30;99.90;;;;;;5063315;28;20038;-63
2023/04/09 11:26:01;;;;;;;11.57;1.30;;;11.50;99.90;;;;;;5056391;28;20039;-64
2023/04/09 11:28:29;;;;;;;12.90;1.55;;;11.70;99.90;;;;;;5059719;28;20024;-64
2023/04/09 11:30:56;;;;;;;15.07;1.77;;;12.00;99.90;;;;;;5068644;28;20435;-63
2023/04/09 11:33:31;;;;;;;17.60;2.47;;;12.30;99.90;;;;;;5070425;28;20466;-63
2023/04/09 11:35:58;;;;;;;11.48;1.30;;;12.50;99.90;;;;;;5065357;28;21019;-63
2023/04/09 11:38:26;;;;;;;14.68;1.85;;;12.50;99.90;;;;;;5061333;28;20028;-63
2023/04/09 11:40:57;;;;;;;16.83;1.23;;;12.60;99.90;;;;;;5079191;28;20021;-64
2023/04/09 11:43:25;;;;;;;6.53;0.93;;;12.60;99.90;;;;;;5053823;28;20016;-65
2023/04/09 11:45:52;;;;;;;4.55;1.85;;;12.70;99.90;;;;;;5060416;28;20079;-63
2023/04/09 11:48:22;;;;;;;8.98;1.25;;;12.80;99.90;;;;;;5056780;28;20025;-63
2023/04/09 11:50:50;;;;;;;3.72;0.70;;;12.80;99.90;;;;;;5069667;28;20024;-64
2023/04/09 11:53:19;;;;;;;2.53;1.02;;;12.80;99.90;;;;;;5082284;28;20435;-62
2023/04/09 11:55:51;;;;;;;6.22;0.80;;;12.90;99.90;;;;;;5064534;28;20025;-64
2023/04/09 11:58:22;;;;;;;4.57;0.68;;;12.90;99.90;;;;;;5060240;28;20069;-63
2023/04/09 12:00:54;;;;;;;2.78;0.52;;;12.90;99.90;;;;;;5068841;28;20473;-63
2023/04/09 12:03:29;;;;;;;4.38;1.20;;;12.90;99.90;;;;;;5073644;28;20154;-64
2023/04/09 12:05:59;;;;;;;4.45;0.85;;;12.80;99.90;;;;;;5063339;28;20055;-64
2023/04/09 12:08:28;;;;;;;4.18;0.73;;;12.70;99.90;;;;;;5074599;28;20585;-64
2023/04/09 12:10:55;;;;;;;2.50;0.60;;;12.80;99.90;;;;;;5070198;28;20115;-64
2023/04/09 12:13:32;;;;;;;3.72;0.60;;;12.90;99.90;;;;;;5067864;28;20032;-64
2023/04/09 12:16:02;;;;;;;3.72;0.80;;;13.00;99.90;;;;;;5080564;28;20493;-63
2023/04/09 12:18:29;;;;;;;2.30;0.65;;;13.00;99.90;;;;;;5059186;28;20025;-63
2023/04/09 12:20:57;;;;;;;2.03;0.40;;;13.00;99.90;;;;;;5064642;28;20031;-63
2023/04/09 12:23:25;;;;;;;4.70;1.00;;;13.10;99.90;;;;;;5064845;28;20031;-65
2023/04/09 12:25:54;;;;;;;3.33;0.70;;;13.10;99.90;;;;;;5067854;28;20028;-64
2023/04/09 12:28:21;;;;;;;1.92;0.70;;;13.20;99.90;;;;;;5062392;28;20811;-63
2023/04/09 12:30:50;;;;;;;3.38;0.82;;;13.30;99.90;;;;;;5079131;28;20016;-63
2023/04/09 12:33:17;;;;;;;3.08;0.57;;;13.30;99.90;;;;;;5060163;28;20473;-63
2023/04/09 12:35:45;;;;;;;4.43;0.82;;;13.40;99.90;;;;;;5060522;28;20031;-63
2023/04/09 12:38:12;;;;;;;2.35;0.60;;;13.50;99.90;;;;;;5057692;28;20063;-66
2023/04/09 12:40:40;;;;;;;5.40;1.00;;;13.40;99.90;;;;;;5063521;28;20098;-58
2023/04/09 12:43:07;;;;;;;4.85;1.13;;;13.40;99.90;;;;;;5067570;28;20023;-62
2023/04/09 12:45:35;;;;;;;5.03;0.90;;;13.40;99.90;;;;;;5060180;28;20482;-62
2023/04/09 12:48:03;;;;;;;4.53;0.60;;;13.40;99.90;;;;;;5061992;28;20033;-62
2023/04/09 12:50:30;;;;;;;4.38;0.93;;;13.40;99.90;;;;;;5065363;28;20108;-63
2023/04/09 12:52:57;;;;;;;1.55;0.45;;;13.40;99.90;;;;;;5066706;28;20043;-63
2023/04/09 12:55:25;;;;;;;5.30;0.90;;;13.30;99.90;;;;;;5059033;28;20066;-67